Time;durP1;ratioP1;P1;durP2;ratioP2;P2;SDS_P1;SDS_P2;PMS_P1;PMS_P2;Temp;Humidity;BMP_temperature;BMP_pressure;BME280_temperature;BME280_humidity;BME280_pressure;Samples;Min_cycle;Max_cycle;Signal;HPM_P1;HPM_P2
2022/05/28 00:00:25;;;;;;;0.50;0.43;;;11.50;99.90;;;;;;5081563;28;20194;-86
2022/05/28 00:02:51;;;;;;;0.50;0.40;;;11.50;99.90;;;;;;5081627;28;20706;-86
2022/05/28 00:05:18;;;;;;;0.50;0.40;;;11.40;99.90;;;;;;5081932;28;20193;-86
2022/05/28 00:07:45;;;;;;;0.50;0.40;;;11.40;99.90;;;;;;5082778;28;20271;-85
2022/05/28 00:10:14;;;;;;;0.50;0.50;;;11.40;99.90;;;;;;5082441;28;20331;-85
2022/05/28 00:12:42;;;;;;;0.50;0.40;;;11.40;99.90;;;;;;5087734;28;20221;-86
2022/05/28 00:15:11;;;;;;;0.50;0.40;;;11.30;99.90;;;;;;5082027;28;20194;-86
2022/05/28 00:17:37;;;;;;;0.50;0.40;;;11.30;99.90;;;;;;5082304;28;20203;-87
2022/05/28 00:20:06;;;;;;;0.50;0.40;;;11.30;99.90;;;;;;5081663;28;20201;-86
2022/05/28 00:22:37;;;;;;;0.50;0.40;;;11.30;99.90;;;;;;5082025;28;20249;-85
2022/05/28 00:25:05;;;;;;;0.50;0.40;;;11.30;99.90;;;;;;5082610;28;20200;-84
2022/05/28 00:27:31;;;;;;;0.60;0.60;;;11.30;99.90;;;;;;5080813;28;20386;-86
2022/05/28 00:29:59;;;;;;;0.50;0.40;;;11.40;99.90;;;;;;5082412;28;20192;-86
2022/05/28 00:32:26;;;;;;;0.50;0.40;;;11.40;99.90;;;;;;5082014;28;20220;-85
2022/05/28 00:34:53;;;;;;;0.70;0.50;;;11.30;99.90;;;;;;5081732;28;20204;-86
2022/05/28 00:37:20;;;;;;;0.50;0.40;;;11.30;99.90;;;;;;5080885;28;20196;-86
2022/05/28 00:39:46;;;;;;;0.50;0.50;;;11.30;99.90;;;;;;5081644;28;20223;-85
2022/05/28 00:42:13;;;;;;;0.50;0.40;;;11.20;99.90;;;;;;5081294;28;20205;-85
2022/05/28 00:44:40;;;;;;;0.50;0.40;;;11.20;99.90;;;;;;5083023;28;20197;-84
2022/05/28 00:47:08;;;;;;;0.60;0.50;;;11.10;99.90;;;;;;5081627;28;20726;-85
2022/05/28 00:49:35;;;;;;;0.50;0.50;;;11.10;99.90;;;;;;5081788;28;20215;-84
2022/05/28 00:52:07;;;;;;;0.50;0.40;;;11.10;99.90;;;;;;5081259;28;20198;-85
2022/05/28 00:54:38;;;;;;;0.90;0.60;;;11.20;99.90;;;;;;5081703;28;20700;-85
2022/05/28 00:57:05;;;;;;;0.50;0.40;;;11.20;99.90;;;;;;5081837;28;20177;-85
2022/05/28 00:59:32;;;;;;;0.50;0.40;;;11.30;99.90;;;;;;5081063;28;20205;-84
2022/05/28 01:02:03;;;;;;;0.50;0.40;;;11.30;99.90;;;;;;5080476;28;20629;-87
2022/05/28 01:04:38;;;;;;;0.70;0.70;;;11.30;99.90;;;;;;5080890;28;20203;-84
2022/05/28 01:07:13;;;;;;;0.50;0.40;;;11.40;99.90;;;;;;5080998;28;20223;-85
2022/05/28 01:09:50;;;;;;;0.50;0.40;;;11.40;99.90;;;;;;5080798;28;20181;-86
2022/05/28 01:12:21;;;;;;;0.50;0.40;;;11.40;99.90;;;;;;5081517;28;20217;-84
2022/05/28 01:14:56;;;;;;;4.30;3.97;;;11.40;99.90;;;;;;5083773;28;20235;-85
2022/05/28 01:17:33;;;;;;;0.50;0.40;;;11.40;99.90;;;;;;5084615;28;20177;-83
2022/05/28 01:20:07;;;;;;;0.50;0.40;;;11.40;99.90;;;;;;5084911;28;20197;-85
2022/05/28 01:23:03;;;;;;;0.50;0.40;;;11.40;99.90;;;;;;5084290;28;20218;-83
2022/05/28 01:25:41;;;;;;;0.50;0.50;;;11.40;99.90;;;;;;5082069;28;20200;-85
2022/05/28 01:28:13;;;;;;;0.50;0.40;;;11.30;99.90;;;;;;5084741;28;20216;-85
2022/05/28 01:30:42;;;;;;;0.50;0.40;;;11.20;99.90;;;;;;5083739;28;20192;-83
2022/05/28 01:33:10;;;;;;;0.50;0.50;;;11.20;99.90;;;;;;5085172;28;20213;-84
2022/05/28 01:35:38;;;;;;;0.50;0.40;;;11.10;99.90;;;;;;5084700;28;20199;-86
2022/05/28 01:38:06;;;;;;;0.50;0.40;;;11.10;99.90;;;;;;5085276;28;20197;-82
2022/05/28 01:40:34;;;;;;;1.58;1.48;;;11.10;99.90;;;;;;5085239;28;20197;-85
2022/05/28 01:43:06;;;;;;;0.50;0.40;;;11.00;99.90;;;;;;5085538;28;20243;-85
2022/05/28 01:45:37;;;;;;;0.50;0.40;;;10.90;99.90;;;;;;5085704;28;20673;-85
2022/05/28 01:48:06;;;;;;;0.50;0.40;;;10.80;99.90;;;;;;5085727;28;20208;-84
2022/05/28 01:50:37;;;;;;;0.50;0.40;;;10.80;99.90;;;;;;5085633;28;20208;-85
2022/05/28 01:53:06;;;;;;;0.50;0.40;;;10.80;99.90;;;;;;5083762;28;20248;-85
2022/05/28 01:55:37;;;;;;;0.50;0.40;;;10.70;99.90;;;;;;5084608;28;20193;-87
2022/05/28 01:58:04;;;;;;;0.50;0.40;;;10.70;99.90;;;;;;5083372;28;20188;-83
2022/05/28 02:00:30;;;;;;;0.50;0.40;;;10.60;99.90;;;;;;5083960;28;20198;-86
2022/05/28 02:03:00;;;;;;;0.70;0.70;;;10.70;99.90;;;;;;5082123;28;20224;-80
2022/05/28 02:05:27;;;;;;;0.82;0.55;;;10.70;99.90;;;;;;5084487;28;20200;-85
2022/05/28 02:07:54;;;;;;;0.50;0.40;;;10.70;99.90;;;;;;5083631;28;20220;-85
2022/05/28 02:10:23;;;;;;;8.02;1.40;;;10.60;99.90;;;;;;5084377;28;20189;-85
2022/05/28 02:12:57;;;;;;;0.80;0.70;;;10.60;99.90;;;;;;5084494;28;20220;-86
2022/05/28 02:15:32;;;;;;;0.50;0.40;;;10.60;99.90;;;;;;5084683;28;20185;-86
2022/05/28 02:18:11;;;;;;;0.60;0.50;;;10.60;99.90;;;;;;5083726;28;20207;-85
2022/05/28 02:20:46;;;;;;;2.15;2.05;;;10.60;99.90;;;;;;5084041;28;20200;-86
2022/05/28 02:23:16;;;;;;;0.50;0.40;;;10.60;99.90;;;;;;5083882;28;20595;-86
2022/05/28 02:25:49;;;;;;;0.50;0.40;;;10.50;99.90;;;;;;5084498;28;20204;-85
2022/05/28 02:28:17;;;;;;;1.30;1.20;;;10.50;99.90;;;;;;5082473;28;20213;-85
2022/05/28 02:30:48;;;;;;;0.50;0.40;;;10.50;99.90;;;;;;5083439;28;20202;-85
2022/05/28 02:33:17;;;;;;;7.38;1.83;;;10.50;99.90;;;;;;5082826;28;20583;-85
2022/05/28 02:35:44;;;;;;;0.50;0.40;;;10.50;99.90;;;;;;5081398;28;20564;-85
2022/05/28 02:38:11;;;;;;;0.82;0.82;;;10.40;99.90;;;;;;5082047;28;20318;-85
2022/05/28 02:40:38;;;;;;;0.50;0.40;;;10.40;99.90;;;;;;5082769;28;20195;-84
2022/05/28 02:43:05;;;;;;;0.50;0.40;;;10.40;99.90;;;;;;5083954;28;20224;-84
2022/05/28 02:45:32;;;;;;;2.30;0.95;;;10.40;99.90;;;;;;5082863;28;20679;-85
2022/05/28 02:47:59;;;;;;;0.50;0.40;;;10.40;99.90;;;;;;5082544;28;20595;-84
2022/05/28 02:50:27;;;;;;;0.50;0.40;;;10.40;99.90;;;;;;5083809;28;20204;-84
2022/05/28 02:52:55;;;;;;;1.58;0.80;;;10.40;99.90;;;;;;5083524;28;20228;-84
2022/05/28 02:55:21;;;;;;;0.50;0.40;;;10.30;99.90;;;;;;5083848;28;20606;-85
2022/05/28 02:57:48;;;;;;;5.30;2.58;;;10.30;99.90;;;;;;5083869;28;20189;-85
2022/05/28 03:00:16;;;;;;;0.50;0.40;;;10.30;99.90;;;;;;5084634;28;20201;-85
2022/05/28 03:02:43;;;;;;;0.50;0.40;;;10.30;99.90;;;;;;5084138;28;20232;-85
2022/05/28 03:05:12;;;;;;;0.50;0.40;;;10.30;99.90;;;;;;5084391;28;20582;-86
2022/05/28 03:07:40;;;;;;;0.50;0.40;;;10.30;99.90;;;;;;5084447;28;20223;-86
2022/05/28 03:10:07;;;;;;;0.50;0.40;;;10.30;99.90;;;;;;5083955;28;20592;-85
2022/05/28 03:12:34;;;;;;;0.50;0.40;;;10.30;99.90;;;;;;5083533;28;20216;-85
2022/05/28 03:15:01;;;;;;;0.50;0.40;;;10.30;99.90;;;;;;5084123;28;20196;-83
2022/05/28 03:17:27;;;;;;;0.50;0.50;;;10.40;99.90;;;;;;5084679;28;20672;-85
2022/05/28 03:19:54;;;;;;;0.50;0.50;;;10.40;99.90;;;;;;5084316;28;20204;-85
2022/05/28 03:22:21;;;;;;;0.50;0.40;;;10.40;99.90;;;;;;5084309;28;20225;-86
2022/05/28 03:24:49;;;;;;;0.50;0.40;;;10.50;99.90;;;;;;5078656;28;20199;-86
2022/05/28 03:27:15;;;;;;;0.50;0.38;;;10.40;99.90;;;;;;5078423;28;20209;-85
2022/05/28 03:29:42;;;;;;;0.50;0.40;;;10.20;99.90;;;;;;5077911;28;20196;-87
2022/05/28 03:32:09;;;;;;;0.50;0.40;;;10.20;99.90;;;;;;5077901;28;20208;-86
2022/05/28 03:34:36;;;;;;;0.50;0.40;;;10.20;99.90;;;;;;5078284;28;20196;-85
2022/05/28 03:37:02;;;;;;;0.50;0.40;;;10.20;99.90;;;;;;5077073;28;20654;-83
2022/05/28 03:39:29;;;;;;;0.50;0.40;;;10.10;99.90;;;;;;5078171;28;20540;-86
2022/05/28 03:41:57;;;;;;;0.50;0.50;;;10.10;99.90;;;;;;5078444;28;20220;-84
2022/05/28 03:44:24;;;;;;;0.50;0.40;;;10.00;99.90;;;;;;5078185;28;20197;-86
2022/05/28 03:46:51;;;;;;;2.75;1.20;;;9.90;99.90;;;;;;5078857;28;20222;-86
2022/05/28 03:49:22;;;;;;;0.50;0.40;;;9.90;99.90;;;;;;5078339;28;20220;-85
2022/05/28 03:51:49;;;;;;;1.23;1.02;;;10.00;99.90;;;;;;5078040;28;20197;-86
2022/05/28 03:54:15;;;;;;;0.50;0.40;;;10.00;99.90;;;;;;5077902;28;20244;-85
2022/05/28 03:56:44;;;;;;;0.50;0.40;;;10.00;99.90;;;;;;5078663;28;20605;-86
2022/05/28 03:59:12;;;;;;;0.50;0.40;;;10.00;99.90;;;;;;5080537;28;20198;-86
2022/05/28 04:01:39;;;;;;;0.50;0.40;;;10.00;99.90;;;;;;5081970;28;20193;-86
2022/05/28 04:04:06;;;;;;;0.50;0.40;;;10.00;99.90;;;;;;5082751;28;20219;-85
2022/05/28 04:06:36;;;;;;;0.50;0.40;;;10.00;99.90;;;;;;5089216;28;20189;-86
2022/05/28 04:09:04;;;;;;;0.50;0.40;;;10.10;99.90;;;;;;5089963;28;20231;-86
2022/05/28 04:11:31;;;;;;;0.50;0.40;;;10.20;99.90;;;;;;5087975;28;20193;-86
2022/05/28 04:13:58;;;;;;;0.50;0.40;;;10.30;99.90;;;;;;5087495;28;20213;-86
2022/05/28 04:16:27;;;;;;;0.50;0.40;;;10.50;99.90;;;;;;5086559;28;20200;-85
2022/05/28 04:18:54;;;;;;;0.50;0.40;;;10.70;99.90;;;;;;5088507;28;20204;-87
2022/05/28 04:21:20;;;;;;;4.10;1.45;;;10.80;99.90;;;;;;5092510;28;20207;-87
2022/05/28 04:23:47;;;;;;;0.50;0.40;;;11.00;99.90;;;;;;5095149;28;20221;-85
2022/05/28 04:26:14;;;;;;;0.50;0.40;;;11.10;99.90;;;;;;5095197;28;20194;-86
2022/05/28 04:28:40;;;;;;;0.60;0.55;;;11.30;99.90;;;;;;5094588;28;20213;-86
2022/05/28 04:31:07;;;;;;;0.50;0.40;;;11.40;99.90;;;;;;5094245;28;20260;-85
2022/05/28 04:33:35;;;;;;;0.50;0.40;;;11.40;99.90;;;;;;5093718;28;20194;-85
2022/05/28 04:36:02;;;;;;;0.60;0.55;;;11.60;99.90;;;;;;5082354;28;20196;-82
2022/05/28 04:38:29;;;;;;;0.77;0.77;;;11.70;99.90;;;;;;5077937;28;20214;-86
2022/05/28 04:40:55;;;;;;;0.50;0.40;;;11.80;99.90;;;;;;5078848;28;20223;-84
2022/05/28 04:43:22;;;;;;;0.60;0.60;;;11.90;99.90;;;;;;5078093;28;20220;-86
2022/05/28 04:45:49;;;;;;;0.50;0.40;;;11.90;99.90;;;;;;5078459;28;20659;-85
2022/05/28 04:48:16;;;;;;;0.50;0.50;;;11.90;99.90;;;;;;5077581;28;20224;-86
2022/05/28 04:50:44;;;;;;;0.50;0.40;;;12.00;99.90;;;;;;5082183;28;20197;-85
2022/05/28 04:53:11;;;;;;;0.50;0.40;;;11.90;99.90;;;;;;5082701;28;20228;-86
2022/05/28 04:55:39;;;;;;;0.50;0.40;;;11.90;99.90;;;;;;5109692;22;20215;-80
2022/05/28 04:58:06;;;;;;;0.50;0.40;;;11.90;99.90;;;;;;5035860;28;20199;-79
2022/05/28 05:00:34;;;;;;;0.50;0.50;;;11.90;99.90;;;;;;5037389;28;20685;-80
2022/05/28 05:03:01;;;;;;;0.50;0.40;;;11.90;99.90;;;;;;5037456;28;20203;-80
2022/05/28 05:05:28;;;;;;;0.60;0.60;;;11.90;99.90;;;;;;5017725;28;20212;-78
2022/05/28 05:07:56;;;;;;;0.50;0.40;;;11.90;99.90;;;;;;5017521;28;20262;-80
2022/05/28 05:10:23;;;;;;;0.50;0.40;;;12.00;99.90;;;;;;5017472;28;20708;-77
2022/05/28 05:12:49;;;;;;;0.98;0.60;;;12.10;99.90;;;;;;5017735;28;20200;-79
2022/05/28 05:15:16;;;;;;;0.95;0.85;;;12.10;99.90;;;;;;5017434;28;20601;-78
2022/05/28 05:17:43;;;;;;;0.50;0.40;;;12.10;99.90;;;;;;5016311;28;20688;-80
2022/05/28 05:20:12;;;;;;;0.50;0.40;;;12.10;99.90;;;;;;5017070;28;20207;-80
2022/05/28 05:22:39;;;;;;;0.50;0.40;;;12.20;99.90;;;;;;5017502;28;20199;-80
2022/05/28 05:25:09;;;;;;;0.50;0.40;;;12.30;99.90;;;;;;5017308;28;20219;-79
2022/05/28 05:27:35;;;;;;;0.50;0.40;;;12.40;99.90;;;;;;5016566;28;20242;-80
2022/05/28 05:30:02;;;;;;;0.50;0.40;;;12.40;99.90;;;;;;5016839;28;20222;-80
2022/05/28 05:32:29;;;;;;;0.50;0.40;;;12.40;99.90;;;;;;5016714;28;20203;-80
2022/05/28 05:34:56;;;;;;;0.50;0.40;;;12.40;99.90;;;;;;5017631;28;20231;-80
2022/05/28 05:37:23;;;;;;;0.50;0.40;;;12.30;99.90;;;;;;5016904;28;20446;-79
2022/05/28 05:39:50;;;;;;;0.50;0.40;;;12.40;99.90;;;;;;5016537;28;20442;-80
2022/05/28 05:42:18;;;;;;;0.50;0.40;;;12.40;99.90;;;;;;5016905;28;20454;-79
2022/05/28 05:44:44;;;;;;;0.50;0.40;;;12.40;99.90;;;;;;5016923;28;20216;-80
2022/05/28 05:47:11;;;;;;;0.50;0.40;;;12.50;99.90;;;;;;5015991;28;20447;-78
2022/05/28 05:49:38;;;;;;;0.50;0.43;;;12.50;99.90;;;;;;5014651;28;20925;-79
2022/05/28 05:52:05;;;;;;;0.50;0.40;;;12.50;99.90;;;;;;5015512;28;20199;-80
2022/05/28 05:54:32;;;;;;;0.50;0.40;;;12.60;99.90;;;;;;5015271;28;20200;-78
2022/05/28 05:56:59;;;;;;;1.10;0.60;;;12.70;99.90;;;;;;5015403;28;20204;-80
2022/05/28 05:59:28;;;;;;;0.50;0.40;;;12.70;99.90;;;;;;5015468;28;20446;-77
2022/05/28 06:01:55;;;;;;;0.50;0.40;;;12.80;99.90;;;;;;5015336;28;20192;-79
2022/05/28 06:04:21;;;;;;;0.60;0.50;;;13.00;99.90;;;;;;5014496;28;20196;-79
2022/05/28 06:06:48;;;;;;;0.50;0.40;;;13.30;99.90;;;;;;5015223;28;20458;-79
2022/05/28 06:09:15;;;;;;;0.50;0.40;;;13.60;99.90;;;;;;5014687;28;20972;-79
2022/05/28 06:11:42;;;;;;;0.50;0.40;;;13.90;99.90;;;;;;5015263;28;20796;-79
2022/05/28 06:14:09;;;;;;;0.50;0.40;;;14.10;99.90;;;;;;5015234;28;20868;-78
2022/05/28 06:16:38;;;;;;;0.50;0.40;;;15.20;99.90;;;;;;5014671;28;20473;-79
2022/05/28 06:19:05;;;;;;;0.50;0.40;;;16.80;99.90;;;;;;5015044;28;20437;-80
2022/05/28 06:21:32;;;;;;;0.50;0.40;;;18.40;99.90;;;;;;5017048;28;20832;-79
2022/05/28 06:24:00;;;;;;;0.50;0.30;;;19.50;99.90;;;;;;5014925;28;20449;-79
2022/05/28 06:26:27;;;;;;;0.50;0.40;;;19.90;99.90;;;;;;5015152;28;20469;-79
2022/05/28 06:28:54;;;;;;;0.50;0.30;;;19.40;99.90;;;;;;5014657;28;20477;-79
2022/05/28 06:31:21;;;;;;;0.50;0.30;;;19.30;99.90;;;;;;5014927;28;20438;-79
2022/05/28 06:33:49;;;;;;;0.50;0.30;;;20.30;99.90;;;;;;5015398;28;20534;-79
2022/05/28 06:36:16;;;;;;;0.50;0.40;;;20.80;95.90;;;;;;5014999;28;20478;-78
2022/05/28 06:38:45;;;;;;;0.50;0.40;;;20.20;93.00;;;;;;5014528;28;20439;-79
2022/05/28 06:41:11;;;;;;;0.50;0.30;;;19.50;95.80;;;;;;5014683;28;20821;-79
2022/05/28 06:43:38;;;;;;;0.50;0.40;;;19.10;99.90;;;;;;5015618;28;20434;-79
2022/05/28 06:46:07;;;;;;;0.50;0.40;;;19.50;96.40;;;;;;5014715;28;20463;-79
2022/05/28 06:48:35;;;;;;;0.50;0.40;;;19.70;93.20;;;;;;5014165;28;20481;-79
2022/05/28 06:51:04;;;;;;;0.70;0.40;;;20.40;91.60;;;;;;5014679;28;20839;-79
2022/05/28 06:53:33;;;;;;;0.50;0.33;;;20.40;86.40;;;;;;5014799;28;20501;-79
2022/05/28 06:56:00;;;;;;;0.50;0.30;;;19.60;90.60;;;;;;5013806;28;20471;-79
2022/05/28 06:58:27;;;;;;;0.50;0.40;;;19.60;91.20;;;;;;5014405;28;20825;-80
2022/05/28 07:00:54;;;;;;;0.50;0.30;;;19.40;91.20;;;;;;5014122;28;20812;-79
2022/05/28 07:03:23;;;;;;;0.50;0.40;;;18.90;93.00;;;;;;5014261;28;20958;-79
2022/05/28 07:05:49;;;;;;;0.50;0.30;;;18.60;95.10;;;;;;5013320;28;20469;-79
2022/05/28 07:08:18;;;;;;;0.50;0.40;;;18.20;99.90;;;;;;5013855;28;21018;-78
2022/05/28 07:10:47;;;;;;;0.50;0.40;;;18.20;99.90;;;;;;5014215;28;20802;-79
2022/05/28 07:13:14;;;;;;;0.93;0.50;;;19.10;99.90;;;;;;5013460;28;20450;-80
2022/05/28 07:15:41;;;;;;;0.50;0.30;;;20.80;91.70;;;;;;5013757;28;20459;-80
2022/05/28 07:18:09;;;;;;;0.50;0.30;;;22.40;80.60;;;;;;5014382;28;20439;-79
2022/05/28 07:20:36;;;;;;;0.50;0.40;;;24.30;73.20;;;;;;5014537;28;20904;-79
2022/05/28 07:23:12;;;;;;;0.50;0.30;;;24.10;66.60;;;;;;5014520;28;20443;-79
2022/05/28 07:25:40;;;;;;;0.50;0.40;;;23.90;62.70;;;;;;5014072;28;20462;-78
2022/05/28 07:28:27;;;;;;;0.50;0.30;;;22.60;63.60;;;;;;5013117;28;20474;-79
2022/05/28 07:30:54;;;;;;;1.80;1.27;;;21.70;64.70;;;;;;5014097;28;20434;-79
2022/05/28 07:33:21;;;;;;;0.60;0.50;;;20.30;67.40;;;;;;5013772;28;20446;-79
2022/05/28 07:35:48;;;;;;;0.50;0.30;;;19.30;69.80;;;;;;5013709;28;20459;-78
2022/05/28 07:38:15;;;;;;;0.50;0.30;;;18.90;75.70;;;;;;5013103;28;20435;-79
2022/05/28 07:40:43;;;;;;;0.50;0.30;;;19.50;76.40;;;;;;5014023;28;20450;-80
2022/05/28 07:43:10;;;;;;;0.50;0.30;;;20.50;77.30;;;;;;5013792;28;20942;-80
2022/05/28 07:45:40;;;;;;;0.50;0.40;;;22.20;71.90;;;;;;5014011;28;20474;-78
2022/05/28 07:48:08;;;;;;;0.50;0.40;;;24.00;67.40;;;;;;5013565;28;20446;-80
2022/05/28 07:50:34;;;;;;;0.50;0.30;;;25.90;60.70;;;;;;5014429;28;20439;-80
2022/05/28 07:53:01;;;;;;;0.50;0.30;;;27.40;57.40;;;;;;5013822;28;20434;-80
2022/05/28 07:55:28;;;;;;;0.50;0.30;;;28.50;57.10;;;;;;5013719;28;20478;-80
2022/05/28 07:57:57;;;;;;;0.50;0.30;;;29.70;53.70;;;;;;5013934;28;20454;-79
2022/05/28 08:00:24;;;;;;;0.93;0.50;;;30.20;52.30;;;;;;5014546;28;20447;-76
2022/05/28 08:02:51;;;;;;;0.50;0.30;;;31.20;50.20;;;;;;5013774;28;20473;-80
2022/05/28 08:05:17;;;;;;;0.50;0.30;;;31.50;48.20;;;;;;5013478;28;20466;-79
2022/05/28 08:07:44;;;;;;;0.50;0.30;;;30.00;47.50;;;;;;5013793;28;20431;-80
2022/05/28 08:10:11;;;;;;;0.50;0.30;;;28.60;48.90;;;;;;5013546;28;20941;-79
2022/05/28 08:12:38;;;;;;;1.63;1.63;;;27.10;49.80;;;;;;5013270;28;20435;-79
2022/05/28 08:15:08;;;;;;;0.50;0.30;;;25.90;52.40;;;;;;5013128;28;20852;-79
2022/05/28 08:17:34;;;;;;;0.50;0.30;;;26.00;53.10;;;;;;5012131;28;20948;-79
2022/05/28 08:20:01;;;;;;;0.50;0.30;;;26.80;53.60;;;;;;5014051;28;20479;-78
2022/05/28 08:25:12;;;;;;;2.50;1.37;;;27.90;49.20;;;;;;5013486;28;20776;-79
2022/05/28 08:27:39;;;;;;;0.50;0.30;;;26.60;50.40;;;;;;5013296;28;20484;-80
2022/05/28 08:30:08;;;;;;;0.50;0.30;;;26.30;51.60;;;;;;5013701;28;20454;-79
2022/05/28 08:32:35;;;;;;;0.50;0.30;;;26.00;54.10;;;;;;5014227;28;20434;-79
2022/05/28 08:35:02;;;;;;;0.60;0.40;;;26.60;55.00;;;;;;5014022;28;20459;-79
2022/05/28 08:37:28;;;;;;;0.50;0.30;;;27.90;51.80;;;;;;5013806;28;20453;-80
2022/05/28 08:39:55;;;;;;;0.50;0.30;;;29.20;50.50;;;;;;5013512;28;20481;-79
2022/05/28 08:42:25;;;;;;;0.50;0.30;;;29.90;47.70;;;;;;5013294;28;20447;-78
2022/05/28 08:44:54;;;;;;;0.50;0.40;;;29.50;47.50;;;;;;5013271;28;20478;-80
2022/05/28 08:47:26;;;;;;;0.50;0.30;;;29.60;46.20;;;;;;5013120;28;20439;-78
2022/05/28 08:49:53;;;;;;;0.50;0.30;;;29.60;46.60;;;;;;5012647;28;20430;-79
2022/05/28 08:52:25;;;;;;;0.50;0.30;;;29.50;46.90;;;;;;5012246;28;20442;-78
2022/05/28 08:54:59;;;;;;;0.50;0.30;;;28.20;46.90;;;;;;5012415;28;20467;-79
2022/05/28 08:57:38;;;;;;;0.50;0.30;;;25.80;49.50;;;;;;5011890;28;20442;-78
2022/05/28 09:00:08;;;;;;;0.50;0.30;;;24.10;52.10;;;;;;5012432;28;20459;-79
2022/05/28 09:02:39;;;;;;;0.50;0.37;;;22.40;54.00;;;;;;5011068;28;20928;-79
2022/05/28 09:05:20;;;;;;;0.50;0.30;;;21.30;55.40;;;;;;5012279;28;20459;-78
2022/05/28 09:07:46;;;;;;;0.50;0.30;;;20.80;57.50;;;;;;5011751;28;20423;-79
2022/05/28 09:10:13;;;;;;;0.50;0.30;;;21.00;57.00;;;;;;5012106;28;20438;-79
2022/05/28 09:12:45;;;;;;;0.50;0.30;;;20.60;56.90;;;;;;5012320;28;20474;-79
2022/05/28 09:15:13;;;;;;;0.50;0.30;;;20.10;57.90;;;;;;5012169;28;20494;-79
2022/05/28 09:17:46;;;;;;;0.50;0.30;;;21.00;59.30;;;;;;5012083;28;20514;-79
2022/05/28 09:20:17;;;;;;;0.50;0.30;;;22.60;58.20;;;;;;5012389;28;20479;-79
2022/05/28 09:22:44;;;;;;;0.50;0.40;;;22.80;55.50;;;;;;5012424;28;20420;-79
2022/05/28 09:25:12;;;;;;;0.50;0.30;;;21.90;56.70;;;;;;5011750;28;20455;-79
2022/05/28 09:27:48;;;;;;;0.97;0.50;;;21.00;57.40;;;;;;5011863;28;20570;-79
2022/05/28 09:30:25;;;;;;;0.50;0.30;;;20.70;59.80;;;;;;5012204;28;20449;-79
2022/05/28 09:33:11;;;;;;;0.50;0.30;;;20.90;58.90;;;;;;5011764;28;20443;-79
2022/05/28 09:35:54;;;;;;;0.50;0.30;;;20.70;59.90;;;;;;5025501;28;20466;-79
2022/05/28 09:38:28;;;;;;;0.50;0.30;;;20.80;59.90;;;;;;5023776;28;20430;-75
2022/05/28 09:41:00;;;;;;;0.50;0.30;;;20.70;60.00;;;;;;5021421;28;20430;-79
2022/05/28 09:43:52;;;;;;;1.10;0.80;;;20.30;60.00;;;;;;5021344;28;20446;-79
2022/05/28 09:46:26;;;;;;;0.50;0.40;;;19.70;61.20;;;;;;5020444;28;20458;-76
2022/05/28 09:49:01;;;;;;;0.50;0.30;;;19.10;63.70;;;;;;5024466;28;20471;-79
2022/05/28 09:51:31;;;;;;;0.50;0.40;;;18.40;64.90;;;;;;5019486;28;20438;-78
2022/05/28 09:54:20;;;;;;;0.50;0.40;;;18.00;66.50;;;;;;5030752;28;20454;-82
2022/05/28 09:56:52;;;;;;;0.50;0.40;;;17.90;68.20;;;;;;5030671;28;20766;-80
2022/05/28 09:59:34;;;;;;;0.50;0.40;;;18.10;70.10;;;;;;5031053;28;20463;-79
2022/05/28 10:02:07;;;;;;;0.50;0.40;;;18.70;69.90;;;;;;5032749;28;20443;-79
2022/05/28 10:04:46;;;;;;;0.50;0.30;;;19.70;70.20;;;;;;5035189;28;20429;-80
2022/05/28 10:07:13;;;;;;;0.50;0.30;;;21.80;69.80;;;;;;5035055;28;20407;-79
2022/05/28 10:09:50;;;;;;;0.50;0.40;;;24.20;60.70;;;;;;5035365;28;20447;-80
2022/05/28 10:12:22;;;;;;;0.50;0.30;;;26.30;56.50;;;;;;5036952;28;20407;-80
2022/05/28 10:14:59;;;;;;;0.70;0.50;;;27.30;54.10;;;;;;5037054;28;20474;-80
2022/05/28 10:17:26;;;;;;;0.50;0.30;;;28.70;51.20;;;;;;5021566;28;20415;-80
2022/05/28 10:19:56;;;;;;;0.90;0.90;;;29.00;49.50;;;;;;5015558;28;20482;-79
2022/05/28 10:22:26;;;;;;;0.50;0.30;;;27.30;49.70;;;;;;5015506;28;20434;-79
2022/05/28 10:25:02;;;;;;;0.50;0.30;;;25.00;52.50;;;;;;5015101;28;20960;-79
2022/05/28 10:27:34;;;;;;;0.50;0.40;;;23.50;55.20;;;;;;5025074;28;20476;-78
2022/05/28 10:30:05;;;;;;;0.50;0.30;;;21.80;57.80;;;;;;5017269;28;20439;-79
2022/05/28 10:32:35;;;;;;;0.50;0.30;;;20.90;60.70;;;;;;5014624;28;20458;-79
2022/05/28 10:35:13;;;;;;;3.60;2.00;;;20.80;64.80;;;;;;5014962;28;20462;-79
2022/05/28 10:37:40;;;;;;;0.50;0.30;;;21.60;63.50;;;;;;5014351;28;20443;-79
2022/05/28 10:40:13;;;;;;;0.50;0.30;;;22.40;61.10;;;;;;5014478;28;20474;-79
2022/05/28 10:42:40;;;;;;;0.50;0.30;;;23.30;58.30;;;;;;5014412;28;20940;-79
2022/05/28 10:45:08;;;;;;;0.50;0.30;;;24.10;57.30;;;;;;5015026;28;20499;-79
2022/05/28 10:48:03;;;;;;;0.50;0.40;;;25.50;55.00;;;;;;5013767;28;20458;-79
2022/05/28 10:50:42;;;;;;;0.50;0.30;;;26.80;53.10;;;;;;5015072;28;20479;-79
2022/05/28 10:53:18;;;;;;;0.50;0.30;;;27.50;52.90;;;;;;5015050;28;20438;-79
2022/05/28 10:55:56;;;;;;;1.00;1.00;;;28.90;51.10;;;;;;5076704;23;20482;-86
2022/05/28 10:58:33;;;;;;;0.50;0.30;;;28.30;49.50;;;;;;5028047;28;20438;-85
2022/05/28 11:01:03;;;;;;;0.50;0.30;;;26.90;49.70;;;;;;5039779;28;20568;-86
2022/05/28 11:04:15;;;;;;;0.50;0.30;;;26.10;51.70;;;;;;5040165;28;20446;-86
2022/05/28 11:07:33;;;;;;;0.50;0.30;;;27.00;51.90;;;;;;5020010;28;20463;-85
2022/05/28 11:10:28;;;;;;;0.50;0.30;;;27.40;49.10;;;;;;5019609;28;20438;-86
2022/05/28 11:13:27;;;;;;;0.50;0.30;;;28.00;48.10;;;;;;5019682;28;20443;-86
2022/05/28 11:16:04;;;;;;;0.50;0.30;;;27.70;47.00;;;;;;5019022;28;20458;-85
2022/05/28 11:18:46;;;;;;;0.50;0.30;;;26.70;46.60;;;;;;5017838;28;20446;-85
2022/05/28 11:21:31;;;;;;;0.50;0.30;;;25.70;50.80;;;;;;5019344;28;20455;-83
2022/05/28 11:24:14;;;;;;;0.50;0.30;;;26.50;50.40;;;;;;5020285;28;20901;-86
2022/05/28 11:26:47;;;;;;;0.50;0.30;;;26.50;50.30;;;;;;5018734;28;20463;-84
2022/05/28 11:29:44;;;;;;;0.50;0.30;;;26.20;49.80;;;;;;5019054;28;20449;-86
2022/05/28 11:32:18;;;;;;;0.50;0.30;;;26.40;50.80;;;;;;5013672;28;20478;-82
2022/05/28 11:34:52;;;;;;;4.30;1.57;;;25.40;48.00;;;;;;5019810;28;20430;-85
2022/05/28 11:37:23;;;;;;;1.50;1.40;;;25.00;48.10;;;;;;5019919;28;20462;-85
2022/05/28 11:39:57;;;;;;;0.50;0.30;;;25.90;48.80;;;;;;5019449;28;20455;-88
2022/05/28 11:42:31;;;;;;;0.50;0.30;;;27.00;48.50;;;;;;5020881;28;20431;-86
2022/05/28 11:44:59;;;;;;;0.50;0.30;;;28.20;47.30;;;;;;5019823;28;20470;-86
2022/05/28 11:47:35;;;;;;;0.50;0.30;;;27.80;46.40;;;;;;5020275;28;20441;-87
2022/05/28 11:52:57;;;;;;;0.60;0.43;;;25.90;47.90;;;;;;5019963;28;20481;-86
2022/05/28 11:55:26;;;;;;;0.50;0.30;;;24.90;51.30;;;;;;5019603;28;20466;-87
2022/05/28 11:58:00;;;;;;;5.90;1.03;;;24.10;52.50;;;;;;5019817;28;20435;-86
2022/05/28 12:00:30;;;;;;;1.47;1.10;;;23.60;52.60;;;;;;5022137;28;20474;-87
2022/05/28 12:03:03;;;;;;;0.50;0.30;;;23.00;53.30;;;;;;5019084;28;20462;-87
2022/05/28 12:05:41;;;;;;;0.50;0.40;;;22.00;54.50;;;;;;5018958;28;20810;-87
2022/05/28 12:08:18;;;;;;;1.60;1.50;;;21.70;56.10;;;;;;5017012;28;20411;-87
2022/05/28 12:10:50;;;;;;;0.50;0.30;;;22.00;55.90;;;;;;5018557;28;20410;-86
2022/05/28 12:13:30;;;;;;;0.50;0.40;;;23.30;54.70;;;;;;5019224;28;20476;-87
2022/05/28 12:16:10;;;;;;;0.50;0.30;;;24.70;54.80;;;;;;5019542;28;20475;-87
2022/05/28 12:18:40;;;;;;;1.77;0.70;;;26.00;53.30;;;;;;5019098;28;20676;-88
2022/05/28 12:21:07;;;;;;;0.50;0.30;;;26.60;51.10;;;;;;5019616;28;20486;-87
2022/05/28 12:23:36;;;;;;;0.63;0.60;;;26.90;51.00;;;;;;5019801;28;20448;-84
2022/05/28 12:26:15;;;;;;;0.80;0.60;;;27.30;48.70;;;;;;5020115;28;20567;-83
2022/05/28 12:28:49;;;;;;;0.50;0.30;;;27.50;49.50;;;;;;5018809;28;20441;-85
2022/05/28 12:31:25;;;;;;;6.00;1.13;;;26.20;48.10;;;;;;5020080;28;20469;-85
2022/05/28 12:33:54;;;;;;;0.50;0.30;;;25.50;50.00;;;;;;5019927;28;20438;-87
2022/05/28 12:36:26;;;;;;;0.50;0.30;;;25.70;51.20;;;;;;5021152;28;20462;-87
2022/05/28 12:39:02;;;;;;;0.50;0.30;;;25.50;51.00;;;;;;5020729;28;20419;-87
2022/05/28 12:41:30;;;;;;;0.50;0.40;;;24.80;50.80;;;;;;5020252;28;20465;-85
2022/05/28 12:44:18;;;;;;;0.50;0.30;;;23.90;51.00;;;;;;5034808;28;20442;-87
2022/05/28 12:46:49;;;;;;;0.73;0.73;;;23.10;50.10;;;;;;5036369;28;20455;-87
2022/05/28 12:49:27;;;;;;;0.50;0.40;;;22.10;50.70;;;;;;5035242;28;20427;-85
2022/05/28 12:52:13;;;;;;;0.60;0.40;;;21.80;52.70;;;;;;5033797;28;20445;-87
2022/05/28 12:54:42;;;;;;;0.50;0.33;;;22.00;53.30;;;;;;5018065;28;20419;-86
2022/05/28 12:57:13;;;;;;;0.50;0.30;;;22.90;53.90;;;;;;5018539;28;20466;-85
2022/05/28 12:59:43;;;;;;;0.50;0.40;;;24.40;52.80;;;;;;5022736;28;20414;-87
2022/05/28 13:02:28;;;;;;;0.50;0.30;;;24.80;50.60;;;;;;5034927;28;20404;-83
2022/05/28 13:05:01;;;;;;;0.50;0.30;;;25.30;51.10;;;;;;5032831;28;20422;-85
2022/05/28 13:07:34;;;;;;;0.50;0.30;;;25.40;49.40;;;;;;5032025;28;20447;-83
2022/05/28 13:10:07;;;;;;;0.50;0.30;;;25.60;49.00;;;;;;5032861;28;20486;-84